sensor_id;sensor_type;location;lat;lon;timestamp;P1;durP1;ratioP1;P2;durP2;ratioP2
73940;SDS011;62294;48.554;10.202;2022-09-09T00:00:24;0.50;;;0.50;;
73940;SDS011;62294;48.554;10.202;2022-09-09T00:08:41;0.88;;;0.68;;
73940;SDS011;62294;48.554;10.202;2022-09-09T00:11:19;1.88;;;1.00;;
73940;SDS011;62294;48.554;10.202;2022-09-09T00:13:57;0.85;;;0.80;;
73940;SDS011;62294;48.554;10.202;2022-09-09T00:16:30;6.80;;;0.88;;
73940;SDS011;62294;48.554;10.202;2022-09-09T00:19:07;1.35;;;0.65;;
73940;SDS011;62294;48.554;10.202;2022-09-09T00:21:37;1.83;;;0.73;;
73940;SDS011;62294;48.554;10.202;2022-09-09T00:24:11;2.90;;;0.70;;
73940;SDS011;62294;48.554;10.202;2022-09-09T00:26:56;1.45;;;0.85;;
73940;SDS011;62294;48.554;10.202;2022-09-09T00:29:47;1.52;;;0.77;;
73940;SDS011;62294;48.554;10.202;2022-09-09T00:32:20;1.30;;;0.80;;
73940;SDS011;62294;48.554;10.202;2022-09-09T00:34:51;2.90;;;0.60;;
73940;SDS011;62294;48.554;10.202;2022-09-09T00:37:23;1.55;;;0.60;;
73940;SDS011;62294;48.554;10.202;2022-09-09T00:39:53;1.90;;;0.80;;
73940;SDS011;62294;48.554;10.202;2022-09-09T00:42:24;1.10;;;0.73;;
73940;SDS011;62294;48.554;10.202;2022-09-09T00:44:55;1.98;;;0.80;;
73940;SDS011;62294;48.554;10.202;2022-09-09T00:52:46;0.90;;;0.68;;
73940;SDS011;62294;48.554;10.202;2022-09-09T00:55:33;3.17;;;0.70;;
73940;SDS011;62294;48.554;10.202;2022-09-09T00:58:11;1.08;;;0.52;;
73940;SDS011;62294;48.554;10.202;2022-09-09T01:03:17;1.40;;;0.50;;
73940;SDS011;62294;48.554;10.202;2022-09-09T01:11:21;2.85;;;0.63;;
73940;SDS011;62294;48.554;10.202;2022-09-09T01:13:53;1.20;;;0.52;;
73940;SDS011;62294;48.554;10.202;2022-09-09T01:16:26;1.85;;;0.68;;
73940;SDS011;62294;48.554;10.202;2022-09-09T01:18:55;1.75;;;0.70;;
73940;SDS011;62294;48.554;10.202;2022-09-09T01:21:29;1.00;;;0.70;;
73940;SDS011;62294;48.554;10.202;2022-09-09T01:24:15;1.55;;;0.50;;
73940;SDS011;62294;48.554;10.202;2022-09-09T01:27:03;1.85;;;0.70;;
73940;SDS011;62294;48.554;10.202;2022-09-09T01:29:33;0.68;;;0.50;;
73940;SDS011;62294;48.554;10.202;2022-09-09T01:32:00;2.33;;;0.73;;
73940;SDS011;62294;48.554;10.202;2022-09-09T01:34:46;2.67;;;0.88;;
73940;SDS011;62294;48.554;10.202;2022-09-09T01:37:13;1.75;;;0.90;;
73940;SDS011;62294;48.554;10.202;2022-09-09T01:39:40;1.17;;;0.47;;
73940;SDS011;62294;48.554;10.202;2022-09-09T01:42:10;0.65;;;0.65;;
73940;SDS011;62294;48.554;10.202;2022-09-09T01:44:40;1.27;;;0.93;;
73940;SDS011;62294;48.554;10.202;2022-09-09T01:47:06;1.35;;;0.68;;
73940;SDS011;62294;48.554;10.202;2022-09-09T01:49:33;1.85;;;0.80;;
73940;SDS011;62294;48.554;10.202;2022-09-09T01:52:00;0.70;;;0.70;;
73940;SDS011;62294;48.554;10.202;2022-09-09T01:54:28;1.15;;;0.73;;
73940;SDS011;62294;48.554;10.202;2022-09-09T01:59:40;1.52;;;0.50;;
73940;SDS011;62294;48.554;10.202;2022-09-09T02:02:10;1.25;;;0.85;;
73940;SDS011;62294;48.554;10.202;2022-09-09T02:04:41;1.13;;;0.82;;
73940;SDS011;62294;48.554;10.202;2022-09-09T02:07:21;0.82;;;0.77;;
73940;SDS011;62294;48.554;10.202;2022-09-09T02:12:42;1.35;;;0.80;;
73940;SDS011;62294;48.554;10.202;2022-09-09T02:15:18;0.95;;;0.73;;
73940;SDS011;62294;48.554;10.202;2022-09-09T02:18:18;1.05;;;0.75;;
73940;SDS011;62294;48.554;10.202;2022-09-09T02:20:52;1.77;;;0.80;;
73940;SDS011;62294;48.554;10.202;2022-09-09T02:23:19;1.15;;;0.70;;
73940;SDS011;62294;48.554;10.202;2022-09-09T02:25:47;1.55;;;0.68;;
73940;SDS011;62294;48.554;10.202;2022-09-09T02:28:18;2.08;;;0.88;;
73940;SDS011;62294;48.554;10.202;2022-09-09T02:30:47;1.30;;;0.70;;
73940;SDS011;62294;48.554;10.202;2022-09-09T02:33:23;4.13;;;1.00;;
73940;SDS011;62294;48.554;10.202;2022-09-09T02:35:53;1.75;;;0.70;;
73940;SDS011;62294;48.554;10.202;2022-09-09T02:38:24;2.15;;;1.00;;
73940;SDS011;62294;48.554;10.202;2022-09-09T02:40:55;1.45;;;0.85;;
73940;SDS011;62294;48.554;10.202;2022-09-09T02:43:21;1.08;;;0.55;;
73940;SDS011;62294;48.554;10.202;2022-09-09T02:45:56;1.23;;;0.57;;
73940;SDS011;62294;48.554;10.202;2022-09-09T02:48:50;1.52;;;0.55;;
73940;SDS011;62294;48.554;10.202;2022-09-09T02:51:29;1.15;;;0.70;;
73940;SDS011;62294;48.554;10.202;2022-09-09T02:54:14;2.10;;;0.75;;
73940;SDS011;62294;48.554;10.202;2022-09-09T02:56:48;1.17;;;0.50;;
73940;SDS011;62294;48.554;10.202;2022-09-09T02:59:21;2.38;;;0.70;;
73940;SDS011;62294;48.554;10.202;2022-09-09T03:01:48;1.77;;;1.00;;
73940;SDS011;62294;48.554;10.202;2022-09-09T03:04:14;1.52;;;0.80;;
73940;SDS011;62294;48.554;10.202;2022-09-09T03:06:41;0.85;;;0.70;;
73940;SDS011;62294;48.554;10.202;2022-09-09T03:09:07;2.13;;;0.70;;
73940;SDS011;62294;48.554;10.202;2022-09-09T03:11:36;1.63;;;0.95;;
73940;SDS011;62294;48.554;10.202;2022-09-09T03:14:04;4.57;;;0.90;;
73940;SDS011;62294;48.554;10.202;2022-09-09T03:16:31;3.17;;;0.85;;
73940;SDS011;62294;48.554;10.202;2022-09-09T03:18:59;1.45;;;0.70;;
73940;SDS011;62294;48.554;10.202;2022-09-09T03:21:26;1.17;;;0.70;;
73940;SDS011;62294;48.554;10.202;2022-09-09T03:23:52;1.15;;;0.85;;
73940;SDS011;62294;48.554;10.202;2022-09-09T03:26:19;2.80;;;0.90;;
73940;SDS011;62294;48.554;10.202;2022-09-09T03:28:46;1.58;;;0.95;;
73940;SDS011;62294;48.554;10.202;2022-09-09T03:31:13;2.67;;;0.90;;
73940;SDS011;62294;48.554;10.202;2022-09-09T03:33:40;0.90;;;0.80;;
73940;SDS011;62294;48.554;10.202;2022-09-09T03:36:10;2.40;;;1.02;;
73940;SDS011;62294;48.554;10.202;2022-09-09T03:38:36;1.65;;;0.90;;
73940;SDS011;62294;48.554;10.202;2022-09-09T03:41:03;1.08;;;0.77;;
73940;SDS011;62294;48.554;10.202;2022-09-09T03:43:32;1.95;;;1.25;;
73940;SDS011;62294;48.554;10.202;2022-09-09T03:46:00;2.78;;;1.15;;
73940;SDS011;62294;48.554;10.202;2022-09-09T03:48:27;0.80;;;0.80;;
73940;SDS011;62294;48.554;10.202;2022-09-09T03:50:54;2.50;;;1.15;;
73940;SDS011;62294;48.554;10.202;2022-09-09T03:53:27;2.88;;;1.52;;
73940;SDS011;62294;48.554;10.202;2022-09-09T03:55:55;3.22;;;1.30;;
73940;SDS011;62294;48.554;10.202;2022-09-09T03:58:25;1.42;;;1.15;;
73940;SDS011;62294;48.554;10.202;2022-09-09T04:00:56;3.53;;;1.30;;
73940;SDS011;62294;48.554;10.202;2022-09-09T04:03:24;2.80;;;1.50;;
73940;SDS011;62294;48.554;10.202;2022-09-09T04:05:54;1.80;;;1.30;;
73940;SDS011;62294;48.554;10.202;2022-09-09T04:08:22;2.38;;;1.40;;
73940;SDS011;62294;48.554;10.202;2022-09-09T04:10:51;3.03;;;1.50;;
73940;SDS011;62294;48.554;10.202;2022-09-09T04:13:19;2.63;;;1.33;;
73940;SDS011;62294;48.554;10.202;2022-09-09T04:15:52;1.20;;;1.10;;
73940;SDS011;62294;48.554;10.202;2022-09-09T04:18:21;3.03;;;1.13;;
73940;SDS011;62294;48.554;10.202;2022-09-09T04:20:49;3.25;;;1.30;;
73940;SDS011;62294;48.554;10.202;2022-09-09T04:23:17;2.63;;;1.17;;
73940;SDS011;62294;48.554;10.202;2022-09-09T04:25:48;2.80;;;1.10;;
73940;SDS011;62294;48.554;10.202;2022-09-09T04:28:17;2.92;;;1.30;;
73940;SDS011;62294;48.554;10.202;2022-09-09T04:30:45;3.40;;;0.95;;
73940;SDS011;62294;48.554;10.202;2022-09-09T04:33:12;1.25;;;0.90;;
73940;SDS011;62294;48.554;10.202;2022-09-09T04:35:47;2.08;;;1.27;;
73940;SDS011;62294;48.554;10.202;2022-09-09T04:38:15;1.63;;;1.17;;
73940;SDS011;62294;48.554;10.202;2022-09-09T04:40:43;2.67;;;1.48;;
73940;SDS011;62294;48.554;10.202;2022-09-09T04:43:12;2.42;;;1.35;;
73940;SDS011;62294;48.554;10.202;2022-09-09T04:45:41;2.35;;;1.33;;
73940;SDS011;62294;48.554;10.202;2022-09-09T04:48:08;2.72;;;1.67;;
73940;SDS011;62294;48.554;10.202;2022-09-09T04:50:38;1.83;;;1.30;;
73940;SDS011;62294;48.554;10.202;2022-09-09T04:53:05;2.88;;;1.38;;
73940;SDS011;62294;48.554;10.202;2022-09-09T04:55:32;1.60;;;1.02;;
73940;SDS011;62294;48.554;10.202;2022-09-09T04:58:04;1.55;;;1.00;;
73940;SDS011;62294;48.554;10.202;2022-09-09T05:00:32;4.68;;;1.50;;
73940;SDS011;62294;48.554;10.202;2022-09-09T05:03:03;4.43;;;1.17;;
73940;SDS011;62294;48.554;10.202;2022-09-09T05:05:31;5.18;;;1.58;;
73940;SDS011;62294;48.554;10.202;2022-09-09T05:08:03;2.65;;;1.60;;
73940;SDS011;62294;48.554;10.202;2022-09-09T05:10:31;2.97;;;1.52;;
73940;SDS011;62294;48.554;10.202;2022-09-09T05:12:58;3.15;;;1.90;;
73940;SDS011;62294;48.554;10.202;2022-09-09T05:15:25;2.25;;;1.70;;
73940;SDS011;62294;48.554;10.202;2022-09-09T05:17:51;4.32;;;1.75;;
73940;SDS011;62294;48.554;10.202;2022-09-09T05:20:21;3.22;;;1.80;;
73940;SDS011;62294;48.554;10.202;2022-09-09T05:22:47;3.42;;;1.60;;
73940;SDS011;62294;48.554;10.202;2022-09-09T05:25:14;2.28;;;1.45;;
73940;SDS011;62294;48.554;10.202;2022-09-09T05:27:40;6.88;;;2.28;;
73940;SDS011;62294;48.554;10.202;2022-09-09T05:30:07;3.28;;;1.90;;
73940;SDS011;62294;48.554;10.202;2022-09-09T05:32:45;7.03;;;2.33;;
73940;SDS011;62294;48.554;10.202;2022-09-09T05:35:12;2.83;;;1.90;;
73940;SDS011;62294;48.554;10.202;2022-09-09T05:37:39;3.10;;;1.60;;
73940;SDS011;62294;48.554;10.202;2022-09-09T05:40:06;3.60;;;1.60;;
73940;SDS011;62294;48.554;10.202;2022-09-09T05:42:33;3.05;;;1.63;;
73940;SDS011;62294;48.554;10.202;2022-09-09T05:44:59;3.33;;;1.77;;
73940;SDS011;62294;48.554;10.202;2022-09-09T05:47:26;2.53;;;1.30;;
73940;SDS011;62294;48.554;10.202;2022-09-09T05:49:54;3.17;;;1.80;;
73940;SDS011;62294;48.554;10.202;2022-09-09T05:52:21;2.53;;;1.80;;
73940;SDS011;62294;48.554;10.202;2022-09-09T05:54:49;3.08;;;1.77;;
73940;SDS011;62294;48.554;10.202;2022-09-09T05:57:15;3.97;;;1.80;;
73940;SDS011;62294;48.554;10.202;2022-09-09T05:59:42;5.13;;;1.90;;
73940;SDS011;62294;48.554;10.202;2022-09-09T06:02:09;4.47;;;2.10;;
73940;SDS011;62294;48.554;10.202;2022-09-09T06:04:35;4.55;;;1.90;;
73940;SDS011;62294;48.554;10.202;2022-09-09T06:07:02;3.53;;;1.70;;
73940;SDS011;62294;48.554;10.202;2022-09-09T06:09:28;3.65;;;1.73;;
73940;SDS011;62294;48.554;10.202;2022-09-09T06:11:56;2.67;;;1.30;;
73940;SDS011;62294;48.554;10.202;2022-09-09T06:14:24;3.00;;;1.40;;
73940;SDS011;62294;48.554;10.202;2022-09-09T06:16:52;3.08;;;1.73;;
73940;SDS011;62294;48.554;10.202;2022-09-09T06:19:19;2.63;;;1.60;;
73940;SDS011;62294;48.554;10.202;2022-09-09T06:21:47;3.10;;;1.83;;
73940;SDS011;62294;48.554;10.202;2022-09-09T06:24:13;2.60;;;2.00;;
73940;SDS011;62294;48.554;10.202;2022-09-09T06:26:43;2.90;;;1.92;;
73940;SDS011;62294;48.554;10.202;2022-09-09T06:29:11;7.38;;;2.90;;
73940;SDS011;62294;48.554;10.202;2022-09-09T06:31:37;5.00;;;2.47;;
73940;SDS011;62294;48.554;10.202;2022-09-09T06:34:06;6.68;;;3.22;;
73940;SDS011;62294;48.554;10.202;2022-09-09T06:36:37;4.68;;;2.88;;
73940;SDS011;62294;48.554;10.202;2022-09-09T06:39:05;4.95;;;2.45;;
73940;SDS011;62294;48.554;10.202;2022-09-09T06:44:05;5.88;;;3.42;;
73940;SDS011;62294;48.554;10.202;2022-09-09T06:46:33;5.38;;;3.20;;
73940;SDS011;62294;48.554;10.202;2022-09-09T06:48:59;6.97;;;3.05;;
73940;SDS011;62294;48.554;10.202;2022-09-09T06:51:27;6.97;;;3.08;;
73940;SDS011;62294;48.554;10.202;2022-09-09T06:53:59;4.43;;;2.72;;
73940;SDS011;62294;48.554;10.202;2022-09-09T06:56:29;6.20;;;2.72;;
73940;SDS011;62294;48.554;10.202;2022-09-09T06:58:59;6.47;;;3.20;;
73940;SDS011;62294;48.554;10.202;2022-09-09T07:01:31;5.93;;;3.00;;
73940;SDS011;62294;48.554;10.202;2022-09-09T07:03:59;8.63;;;3.92;;
73940;SDS011;62294;48.554;10.202;2022-09-09T07:06:27;6.53;;;3.45;;
73940;SDS011;62294;48.554;10.202;2022-09-09T07:08:56;8.80;;;4.05;;
73940;SDS011;62294;48.554;10.202;2022-09-09T07:11:25;8.73;;;4.30;;
73940;SDS011;62294;48.554;10.202;2022-09-09T07:13:54;7.35;;;3.80;;
73940;SDS011;62294;48.554;10.202;2022-09-09T07:16:23;15.50;;;6.40;;
73940;SDS011;62294;48.554;10.202;2022-09-09T07:18:51;12.88;;;6.28;;
73940;SDS011;62294;48.554;10.202;2022-09-09T07:21:18;16.20;;;6.85;;
73940;SDS011;62294;48.554;10.202;2022-09-09T07:23:47;6.28;;;3.88;;
73940;SDS011;62294;48.554;10.202;2022-09-09T07:26:14;6.55;;;2.95;;
73940;SDS011;62294;48.554;10.202;2022-09-09T07:28:43;8.50;;;2.50;;
73940;SDS011;62294;48.554;10.202;2022-09-09T07:31:13;5.15;;;2.40;;
73940;SDS011;62294;48.554;10.202;2022-09-09T07:33:42;5.45;;;2.70;;
73940;SDS011;62294;48.554;10.202;2022-09-09T07:36:15;4.20;;;2.13;;
73940;SDS011;62294;48.554;10.202;2022-09-09T07:38:47;5.78;;;2.53;;
73940;SDS011;62294;48.554;10.202;2022-09-09T07:41:19;4.25;;;2.13;;
73940;SDS011;62294;48.554;10.202;2022-09-09T07:43:48;3.55;;;1.73;;
73940;SDS011;62294;48.554;10.202;2022-09-09T07:46:16;4.18;;;2.03;;
73940;SDS011;62294;48.554;10.202;2022-09-09T07:48:46;3.63;;;2.08;;
73940;SDS011;62294;48.554;10.202;2022-09-09T07:51:20;3.28;;;1.30;;
73940;SDS011;62294;48.554;10.202;2022-09-09T07:53:53;6.43;;;2.00;;
73940;SDS011;62294;48.554;10.202;2022-09-09T07:56:24;3.20;;;1.70;;
73940;SDS011;62294;48.554;10.202;2022-09-09T07:58:53;3.35;;;1.73;;
73940;SDS011;62294;48.554;10.202;2022-09-09T08:01:22;2.92;;;1.88;;
73940;SDS011;62294;48.554;10.202;2022-09-09T08:06:25;4.78;;;2.05;;
73940;SDS011;62294;48.554;10.202;2022-09-09T08:08:53;6.90;;;2.63;;
73940;SDS011;62294;48.554;10.202;2022-09-09T08:11:22;3.95;;;2.55;;
73940;SDS011;62294;48.554;10.202;2022-09-09T08:13:51;3.33;;;2.38;;
73940;SDS011;62294;48.554;10.202;2022-09-09T08:16:22;6.35;;;2.58;;
73940;SDS011;62294;48.554;10.202;2022-09-09T08:18:51;5.15;;;3.30;;
73940;SDS011;62294;48.554;10.202;2022-09-09T08:21:19;6.22;;;3.40;;
73940;SDS011;62294;48.554;10.202;2022-09-09T08:23:47;4.57;;;2.60;;
73940;SDS011;62294;48.554;10.202;2022-09-09T08:26:24;4.72;;;2.47;;
73940;SDS011;62294;48.554;10.202;2022-09-09T08:28:53;3.60;;;2.15;;
73940;SDS011;62294;48.554;10.202;2022-09-09T08:31:25;8.63;;;2.30;;
73940;SDS011;62294;48.554;10.202;2022-09-09T08:33:57;4.10;;;1.98;;
73940;SDS011;62294;48.554;10.202;2022-09-09T08:36:31;4.60;;;2.20;;
73940;SDS011;62294;48.554;10.202;2022-09-09T08:38:59;2.50;;;1.77;;
73940;SDS011;62294;48.554;10.202;2022-09-09T08:55:56;3.83;;;2.10;;
73940;SDS011;62294;48.554;10.202;2022-09-09T08:58:28;3.53;;;2.03;;
73940;SDS011;62294;48.554;10.202;2022-09-09T09:12:19;2.78;;;1.70;;
73940;SDS011;62294;48.554;10.202;2022-09-09T09:14:48;4.80;;;2.20;;
73940;SDS011;62294;48.554;10.202;2022-09-09T09:19:47;4.40;;;2.40;;
73940;SDS011;62294;48.554;10.202;2022-09-09T09:27:15;2.97;;;2.40;;
73940;SDS011;62294;48.554;10.202;2022-09-09T09:29:48;4.45;;;1.80;;
73940;SDS011;62294;48.554;10.202;2022-09-09T09:32:36;3.03;;;1.73;;
73940;SDS011;62294;48.554;10.202;2022-09-09T09:35:10;4.22;;;2.03;;
73940;SDS011;62294;48.554;10.202;2022-09-09T09:37:39;2.58;;;1.65;;
73940;SDS011;62294;48.554;10.202;2022-09-09T09:40:27;3.78;;;2.30;;
73940;SDS011;62294;48.554;10.202;2022-09-09T09:42:57;3.85;;;2.10;;
73940;SDS011;62294;48.554;10.202;2022-09-09T09:45:31;3.53;;;2.17;;
73940;SDS011;62294;48.554;10.202;2022-09-09T09:48:04;3.97;;;2.03;;
73940;SDS011;62294;48.554;10.202;2022-09-09T09:50:33;4.50;;;2.00;;
73940;SDS011;62294;48.554;10.202;2022-09-09T09:53:02;4.88;;;2.10;;
73940;SDS011;62294;48.554;10.202;2022-09-09T09:55:32;2.00;;;1.70;;
73940;SDS011;62294;48.554;10.202;2022-09-09T09:58:02;5.25;;;2.10;;
73940;SDS011;62294;48.554;10.202;2022-09-09T10:00:30;2.58;;;1.65;;
73940;SDS011;62294;48.554;10.202;2022-09-09T10:02:59;4.40;;;1.67;;
73940;SDS011;62294;48.554;10.202;2022-09-09T10:05:27;3.15;;;1.70;;
73940;SDS011;62294;48.554;10.202;2022-09-09T10:19:35;1.88;;;1.27;;
73940;SDS011;62294;48.554;10.202;2022-09-09T10:24:52;2.30;;;1.38;;
73940;SDS011;62294;48.554;10.202;2022-09-09T10:30:21;2.33;;;1.60;;
73940;SDS011;62294;48.554;10.202;2022-09-09T10:33:01;3.55;;;1.60;;
73940;SDS011;62294;48.554;10.202;2022-09-09T10:38:24;3.17;;;1.77;;
73940;SDS011;62294;48.554;10.202;2022-09-09T10:41:13;2.97;;;1.50;;
73940;SDS011;62294;48.554;10.202;2022-09-09T10:55:18;3.35;;;1.30;;
73940;SDS011;62294;48.554;10.202;2022-09-09T10:57:47;2.65;;;1.30;;
73940;SDS011;62294;48.554;10.202;2022-09-09T11:00:22;3.80;;;1.73;;
73940;SDS011;62294;48.554;10.202;2022-09-09T11:03:15;3.30;;;1.25;;
73940;SDS011;62294;48.554;10.202;2022-09-09T11:05:49;2.55;;;1.20;;
73940;SDS011;62294;48.554;10.202;2022-09-09T11:08:28;2.55;;;1.10;;
73940;SDS011;62294;48.554;10.202;2022-09-09T11:11:02;3.42;;;0.90;;
73940;SDS011;62294;48.554;10.202;2022-09-09T11:13:32;2.67;;;0.85;;
73940;SDS011;62294;48.554;10.202;2022-09-09T11:19:09;1.60;;;0.80;;
73940;SDS011;62294;48.554;10.202;2022-09-09T11:21:38;1.13;;;0.60;;
73940;SDS011;62294;48.554;10.202;2022-09-09T11:24:13;1.23;;;0.70;;
73940;SDS011;62294;48.554;10.202;2022-09-09T11:26:51;2.08;;;0.90;;
73940;SDS011;62294;48.554;10.202;2022-09-09T11:29:36;4.78;;;0.90;;
73940;SDS011;62294;48.554;10.202;2022-09-09T11:32:14;1.17;;;0.80;;
73940;SDS011;62294;48.554;10.202;2022-09-09T11:34:56;1.98;;;0.70;;
73940;SDS011;62294;48.554;10.202;2022-09-09T11:38:31;2.20;;;0.80;;
73940;SDS011;62294;48.554;10.202;2022-09-09T11:40:58;2.15;;;0.70;;
73940;SDS011;62294;48.554;10.202;2022-09-09T11:43:28;4.55;;;1.15;;
73940;SDS011;62294;48.554;10.202;2022-09-09T11:46:00;1.52;;;0.80;;
73940;SDS011;62294;48.554;10.202;2022-09-09T11:48:32;2.58;;;0.80;;
73940;SDS011;62294;48.554;10.202;2022-09-09T11:51:07;7.47;;;1.27;;
73940;SDS011;62294;48.554;10.202;2022-09-09T11:53:49;2.15;;;0.80;;
73940;SDS011;62294;48.554;10.202;2022-09-09T11:59:00;2.00;;;0.80;;
73940;SDS011;62294;48.554;10.202;2022-09-09T12:14:43;2.63;;;1.00;;
73940;SDS011;62294;48.554;10.202;2022-09-09T12:26:01;2.60;;;0.60;;
73940;SDS011;62294;48.554;10.202;2022-09-09T12:31:39;0.90;;;0.68;;
73940;SDS011;62294;48.554;10.202;2022-09-09T12:34:39;2.65;;;0.73;;
73940;SDS011;62294;48.554;10.202;2022-09-09T12:39:46;1.13;;;0.90;;
73940;SDS011;62294;48.554;10.202;2022-09-09T12:42:19;1.05;;;0.60;;
73940;SDS011;62294;48.554;10.202;2022-09-09T12:44:50;1.58;;;0.80;;
73940;SDS011;62294;48.554;10.202;2022-09-09T12:47:42;2.58;;;1.00;;
73940;SDS011;62294;48.554;10.202;2022-09-09T12:50:15;1.63;;;0.82;;
73940;SDS011;62294;48.554;10.202;2022-09-09T12:52:45;4.53;;;0.95;;
73940;SDS011;62294;48.554;10.202;2022-09-09T12:55:24;1.88;;;1.35;;
73940;SDS011;62294;48.554;10.202;2022-09-09T12:57:56;0.85;;;0.70;;
73940;SDS011;62294;48.554;10.202;2022-09-09T13:00:25;1.15;;;0.70;;
73940;SDS011;62294;48.554;10.202;2022-09-09T13:02:54;1.88;;;0.80;;
73940;SDS011;62294;48.554;10.202;2022-09-09T13:05:26;1.75;;;0.80;;
73940;SDS011;62294;48.554;10.202;2022-09-09T13:08:01;0.60;;;0.60;;
73940;SDS011;62294;48.554;10.202;2022-09-09T13:10:35;2.40;;;0.90;;
73940;SDS011;62294;48.554;10.202;2022-09-09T13:13:23;1.08;;;0.60;;
73940;SDS011;62294;48.554;10.202;2022-09-09T13:15:54;2.30;;;0.88;;
73940;SDS011;62294;48.554;10.202;2022-09-09T13:18:29;1.75;;;0.80;;
73940;SDS011;62294;48.554;10.202;2022-09-09T13:20:58;2.25;;;0.80;;
73940;SDS011;62294;48.554;10.202;2022-09-09T13:23:31;2.33;;;0.85;;
73940;SDS011;62294;48.554;10.202;2022-09-09T13:26:06;2.28;;;0.90;;
73940;SDS011;62294;48.554;10.202;2022-09-09T13:28:49;4.00;;;0.98;;
73940;SDS011;62294;48.554;10.202;2022-09-09T13:31:23;4.03;;;0.80;;
73940;SDS011;62294;48.554;10.202;2022-09-09T13:33:50;1.20;;;0.80;;
73940;SDS011;62294;48.554;10.202;2022-09-09T13:36:32;1.80;;;1.02;;
73940;SDS011;62294;48.554;10.202;2022-09-09T13:39:01;1.85;;;0.93;;
73940;SDS011;62294;48.554;10.202;2022-09-09T13:41:32;2.65;;;0.80;;
73940;SDS011;62294;48.554;10.202;2022-09-09T13:44:01;1.13;;;0.70;;
73940;SDS011;62294;48.554;10.202;2022-09-09T13:46:31;0.93;;;0.60;;
73940;SDS011;62294;48.554;10.202;2022-09-09T13:49:17;0.65;;;0.65;;
73940;SDS011;62294;48.554;10.202;2022-09-09T13:51:49;1.35;;;0.70;;
73940;SDS011;62294;48.554;10.202;2022-09-09T13:54:18;3.05;;;0.75;;
73940;SDS011;62294;48.554;10.202;2022-09-09T13:56:46;0.63;;;0.63;;
73940;SDS011;62294;48.554;10.202;2022-09-09T13:59:14;4.80;;;0.80;;
73940;SDS011;62294;48.554;10.202;2022-09-09T14:01:42;2.60;;;0.85;;
73940;SDS011;62294;48.554;10.202;2022-09-09T14:04:09;3.42;;;0.77;;
73940;SDS011;62294;48.554;10.202;2022-09-09T14:06:36;1.75;;;0.80;;
73940;SDS011;62294;48.554;10.202;2022-09-09T14:09:05;2.33;;;0.77;;
73940;SDS011;62294;48.554;10.202;2022-09-09T14:11:33;1.70;;;0.90;;
73940;SDS011;62294;48.554;10.202;2022-09-09T14:14:00;2.42;;;0.90;;
73940;SDS011;62294;48.554;10.202;2022-09-09T14:16:27;1.65;;;0.80;;
73940;SDS011;62294;48.554;10.202;2022-09-09T14:18:55;1.48;;;0.80;;
73940;SDS011;62294;48.554;10.202;2022-09-09T14:21:25;0.82;;;0.70;;
73940;SDS011;62294;48.554;10.202;2022-09-09T14:23:52;0.70;;;0.70;;
73940;SDS011;62294;48.554;10.202;2022-09-09T14:26:19;1.48;;;0.82;;
73940;SDS011;62294;48.554;10.202;2022-09-09T14:28:47;2.17;;;0.80;;
73940;SDS011;62294;48.554;10.202;2022-09-09T14:31:21;2.50;;;0.93;;
73940;SDS011;62294;48.554;10.202;2022-09-09T14:33:49;3.65;;;0.90;;
73940;SDS011;62294;48.554;10.202;2022-09-09T14:36:16;2.22;;;0.80;;
73940;SDS011;62294;48.554;10.202;2022-09-09T14:38:43;2.30;;;0.80;;
73940;SDS011;62294;48.554;10.202;2022-09-09T14:41:10;2.78;;;1.38;;
73940;SDS011;62294;48.554;10.202;2022-09-09T14:43:38;7.07;;;1.23;;
73940;SDS011;62294;48.554;10.202;2022-09-09T14:46:05;3.03;;;1.35;;
73940;SDS011;62294;48.554;10.202;2022-09-09T14:48:34;3.92;;;1.38;;
73940;SDS011;62294;48.554;10.202;2022-09-09T14:51:04;5.55;;;1.13;;
73940;SDS011;62294;48.554;10.202;2022-09-09T14:53:36;3.22;;;1.30;;
73940;SDS011;62294;48.554;10.202;2022-09-09T14:56:04;4.60;;;1.02;;
73940;SDS011;62294;48.554;10.202;2022-09-09T14:58:34;2.33;;;0.80;;
73940;SDS011;62294;48.554;10.202;2022-09-09T15:01:03;6.85;;;1.45;;
73940;SDS011;62294;48.554;10.202;2022-09-09T15:03:31;3.08;;;1.17;;
73940;SDS011;62294;48.554;10.202;2022-09-09T15:05:57;9.32;;;2.20;;
73940;SDS011;62294;48.554;10.202;2022-09-09T15:08:27;4.07;;;0.80;;
73940;SDS011;62294;48.554;10.202;2022-09-09T15:11:00;3.85;;;1.40;;
73940;SDS011;62294;48.554;10.202;2022-09-09T15:13:28;2.95;;;0.93;;
73940;SDS011;62294;48.554;10.202;2022-09-09T15:15:55;2.17;;;1.13;;
73940;SDS011;62294;48.554;10.202;2022-09-09T15:18:22;2.72;;;0.93;;
73940;SDS011;62294;48.554;10.202;2022-09-09T15:20:48;1.30;;;0.82;;
73940;SDS011;62294;48.554;10.202;2022-09-09T15:23:15;2.42;;;1.05;;
73940;SDS011;62294;48.554;10.202;2022-09-09T15:25:50;2.22;;;0.82;;
73940;SDS011;62294;48.554;10.202;2022-09-09T15:28:20;2.92;;;1.00;;
73940;SDS011;62294;48.554;10.202;2022-09-09T15:30:48;4.68;;;1.00;;
73940;SDS011;62294;48.554;10.202;2022-09-09T15:33:15;4.13;;;1.05;;
73940;SDS011;62294;48.554;10.202;2022-09-09T15:35:42;1.52;;;0.82;;
73940;SDS011;62294;48.554;10.202;2022-09-09T15:38:08;4.68;;;1.10;;
73940;SDS011;62294;48.554;10.202;2022-09-09T15:40:35;2.85;;;1.00;;
73940;SDS011;62294;48.554;10.202;2022-09-09T15:43:02;3.42;;;0.90;;
73940;SDS011;62294;48.554;10.202;2022-09-09T15:45:30;3.47;;;1.02;;
73940;SDS011;62294;48.554;10.202;2022-09-09T15:47:59;4.53;;;1.02;;
73940;SDS011;62294;48.554;10.202;2022-09-09T15:50:27;1.92;;;1.10;;
73940;SDS011;62294;48.554;10.202;2022-09-09T15:52:55;3.17;;;1.00;;
73940;SDS011;62294;48.554;10.202;2022-09-09T15:55:22;3.17;;;0.95;;
73940;SDS011;62294;48.554;10.202;2022-09-09T15:57:52;2.60;;;0.90;;
73940;SDS011;62294;48.554;10.202;2022-09-09T16:00:19;3.03;;;1.00;;
73940;SDS011;62294;48.554;10.202;2022-09-09T16:02:46;3.20;;;0.73;;
73940;SDS011;62294;48.554;10.202;2022-09-09T16:05:13;3.78;;;1.65;;
73940;SDS011;62294;48.554;10.202;2022-09-09T16:07:40;1.52;;;0.95;;
73940;SDS011;62294;48.554;10.202;2022-09-09T16:10:08;3.78;;;0.90;;
73940;SDS011;62294;48.554;10.202;2022-09-09T16:12:35;2.15;;;1.00;;
73940;SDS011;62294;48.554;10.202;2022-09-09T16:15:01;2.10;;;1.23;;
73940;SDS011;62294;48.554;10.202;2022-09-09T16:17:28;3.60;;;1.55;;
73940;SDS011;62294;48.554;10.202;2022-09-09T16:19:55;2.33;;;1.00;;
73940;SDS011;62294;48.554;10.202;2022-09-09T16:22:23;3.70;;;0.80;;
73940;SDS011;62294;48.554;10.202;2022-09-09T16:24:50;3.08;;;1.00;;
73940;SDS011;62294;48.554;10.202;2022-09-09T16:27:16;1.33;;;0.73;;
73940;SDS011;62294;48.554;10.202;2022-09-09T16:29:43;2.45;;;0.70;;
73940;SDS011;62294;48.554;10.202;2022-09-09T16:32:10;1.70;;;0.70;;
73940;SDS011;62294;48.554;10.202;2022-09-09T16:34:37;5.13;;;0.93;;
73940;SDS011;62294;48.554;10.202;2022-09-09T16:37:03;1.85;;;0.80;;
73940;SDS011;62294;48.554;10.202;2022-09-09T16:39:30;0.95;;;0.88;;
73940;SDS011;62294;48.554;10.202;2022-09-09T16:41:56;1.35;;;0.70;;
73940;SDS011;62294;48.554;10.202;2022-09-09T16:44:23;1.00;;;0.68;;
73940;SDS011;62294;48.554;10.202;2022-09-09T16:46:52;0.70;;;0.60;;
73940;SDS011;62294;48.554;10.202;2022-09-09T16:49:25;3.40;;;0.90;;
73940;SDS011;62294;48.554;10.202;2022-09-09T16:51:56;3.42;;;0.90;;
73940;SDS011;62294;48.554;10.202;2022-09-09T16:54:24;1.98;;;0.50;;
73940;SDS011;62294;48.554;10.202;2022-09-09T16:56:52;3.17;;;0.90;;
73940;SDS011;62294;48.554;10.202;2022-09-09T16:59:20;2.00;;;0.90;;
73940;SDS011;62294;48.554;10.202;2022-09-09T17:01:48;2.10;;;0.88;;